sensor_id;sensor_type;location;lat;lon;timestamp;P1;durP1;ratioP1;P2;durP2;ratioP2
9124;SDS011;4597;48.730;9.114;2022-10-04T00:00:58;4.97;;;4.47;;
9124;SDS011;4597;48.730;9.114;2022-10-04T00:03:47;5.43;;;4.37;;
9124;SDS011;4597;48.730;9.114;2022-10-04T00:06:17;4.83;;;4.43;;
9124;SDS011;4597;48.730;9.114;2022-10-04T00:08:49;6.47;;;4.83;;
9124;SDS011;4597;48.730;9.114;2022-10-04T00:11:30;6.87;;;5.27;;
9124;SDS011;4597;48.730;9.114;2022-10-04T00:14:00;7.57;;;5.20;;
9124;SDS011;4597;48.730;9.114;2022-10-04T00:16:35;8.40;;;5.17;;
9124;SDS011;4597;48.730;9.114;2022-10-04T00:24:21;5.87;;;4.70;;
9124;SDS011;4597;48.730;9.114;2022-10-04T00:29:33;7.00;;;4.97;;
9124;SDS011;4597;48.730;9.114;2022-10-04T00:37:14;7.17;;;4.30;;
9124;SDS011;4597;48.730;9.114;2022-10-04T00:39:42;4.93;;;4.50;;
9124;SDS011;4597;48.730;9.114;2022-10-04T00:47:25;6.63;;;4.90;;
9124;SDS011;4597;48.730;9.114;2022-10-04T00:50:19;5.20;;;4.50;;
9124;SDS011;4597;48.730;9.114;2022-10-04T00:52:58;7.07;;;4.63;;
9124;SDS011;4597;48.730;9.114;2022-10-04T00:55:34;9.03;;;4.80;;
9124;SDS011;4597;48.730;9.114;2022-10-04T00:58:06;7.53;;;5.07;;
9124;SDS011;4597;48.730;9.114;2022-10-04T01:00:42;12.23;;;5.10;;
9124;SDS011;4597;48.730;9.114;2022-10-04T01:03:12;7.47;;;4.70;;
9124;SDS011;4597;48.730;9.114;2022-10-04T01:05:48;4.90;;;4.50;;
9124;SDS011;4597;48.730;9.114;2022-10-04T01:08:21;5.30;;;4.80;;
9124;SDS011;4597;48.730;9.114;2022-10-04T01:18:27;6.33;;;4.77;;
9124;SDS011;4597;48.730;9.114;2022-10-04T01:23:36;7.43;;;4.80;;
9124;SDS011;4597;48.730;9.114;2022-10-04T01:28:59;5.70;;;4.20;;
9124;SDS011;4597;48.730;9.114;2022-10-04T01:34:14;8.47;;;4.40;;
9124;SDS011;4597;48.730;9.114;2022-10-04T01:36:42;4.87;;;4.43;;
9124;SDS011;4597;48.730;9.114;2022-10-04T01:39:11;8.03;;;4.30;;
9124;SDS011;4597;48.730;9.114;2022-10-04T01:41:41;5.93;;;4.40;;
9124;SDS011;4597;48.730;9.114;2022-10-04T01:44:45;8.23;;;4.40;;
9124;SDS011;4597;48.730;9.114;2022-10-04T01:47:26;4.73;;;4.30;;
9124;SDS011;4597;48.730;9.114;2022-10-04T01:50:00;4.67;;;4.17;;
9124;SDS011;4597;48.730;9.114;2022-10-04T01:52:33;4.63;;;4.17;;
9124;SDS011;4597;48.730;9.114;2022-10-04T01:55:24;4.13;;;3.80;;
9124;SDS011;4597;48.730;9.114;2022-10-04T01:58:00;5.40;;;4.27;;
9124;SDS011;4597;48.730;9.114;2022-10-04T02:00:58;4.53;;;3.97;;
9124;SDS011;4597;48.730;9.114;2022-10-04T02:03:35;4.77;;;4.37;;
9124;SDS011;4597;48.730;9.114;2022-10-04T02:06:15;6.87;;;4.83;;
9124;SDS011;4597;48.730;9.114;2022-10-04T02:08:46;6.27;;;4.43;;
9124;SDS011;4597;48.730;9.114;2022-10-04T02:11:18;4.77;;;4.40;;
9124;SDS011;4597;48.730;9.114;2022-10-04T02:13:45;5.50;;;4.63;;
9124;SDS011;4597;48.730;9.114;2022-10-04T02:16:14;6.20;;;4.33;;
9124;SDS011;4597;48.730;9.114;2022-10-04T02:18:41;4.77;;;4.37;;
9124;SDS011;4597;48.730;9.114;2022-10-04T02:21:08;5.20;;;4.80;;
9124;SDS011;4597;48.730;9.114;2022-10-04T02:23:35;5.23;;;4.50;;
9124;SDS011;4597;48.730;9.114;2022-10-04T02:26:03;5.27;;;4.80;;
9124;SDS011;4597;48.730;9.114;2022-10-04T02:28:31;5.87;;;5.23;;
9124;SDS011;4597;48.730;9.114;2022-10-04T02:30:57;5.53;;;5.03;;
9124;SDS011;4597;48.730;9.114;2022-10-04T02:33:44;36.80;;;7.67;;
9124;SDS011;4597;48.730;9.114;2022-10-04T02:36:12;15.80;;;6.47;;
9124;SDS011;4597;48.730;9.114;2022-10-04T02:38:44;8.70;;;6.63;;
9124;SDS011;4597;48.730;9.114;2022-10-04T02:41:22;11.40;;;6.30;;
9124;SDS011;4597;48.730;9.114;2022-10-04T02:43:55;5.73;;;5.20;;
9124;SDS011;4597;48.730;9.114;2022-10-04T02:46:37;8.00;;;5.97;;
9124;SDS011;4597;48.730;9.114;2022-10-04T02:49:34;7.57;;;5.47;;
9124;SDS011;4597;48.730;9.114;2022-10-04T02:52:10;8.80;;;6.33;;
9124;SDS011;4597;48.730;9.114;2022-10-04T02:57:30;6.47;;;5.80;;
9124;SDS011;4597;48.730;9.114;2022-10-04T03:00:17;6.27;;;5.10;;
9124;SDS011;4597;48.730;9.114;2022-10-04T03:05:35;8.57;;;5.63;;
9124;SDS011;4597;48.730;9.114;2022-10-04T03:08:03;7.43;;;5.53;;
9124;SDS011;4597;48.730;9.114;2022-10-04T03:10:29;6.10;;;5.50;;
9124;SDS011;4597;48.730;9.114;2022-10-04T03:12:55;8.00;;;5.83;;
9124;SDS011;4597;48.730;9.114;2022-10-04T03:15:21;9.03;;;5.17;;
9124;SDS011;4597;48.730;9.114;2022-10-04T03:17:46;5.73;;;5.17;;
9124;SDS011;4597;48.730;9.114;2022-10-04T03:20:15;5.83;;;5.23;;
9124;SDS011;4597;48.730;9.114;2022-10-04T03:22:45;5.13;;;4.57;;
9124;SDS011;4597;48.730;9.114;2022-10-04T03:25:17;5.90;;;5.30;;
9124;SDS011;4597;48.730;9.114;2022-10-04T03:27:48;7.80;;;5.60;;
9124;SDS011;4597;48.730;9.114;2022-10-04T03:30:15;6.00;;;5.30;;
9124;SDS011;4597;48.730;9.114;2022-10-04T03:32:45;7.63;;;4.33;;
9124;SDS011;4597;48.730;9.114;2022-10-04T03:35:26;5.07;;;4.57;;
9124;SDS011;4597;48.730;9.114;2022-10-04T03:37:52;4.40;;;4.00;;
9124;SDS011;4597;48.730;9.114;2022-10-04T03:40:21;4.77;;;4.10;;
9124;SDS011;4597;48.730;9.114;2022-10-04T03:42:51;5.00;;;4.60;;
9124;SDS011;4597;48.730;9.114;2022-10-04T03:45:17;3.90;;;3.60;;
9124;SDS011;4597;48.730;9.114;2022-10-04T03:47:45;4.00;;;3.70;;
9124;SDS011;4597;48.730;9.114;2022-10-04T03:52:51;3.63;;;3.40;;
9124;SDS011;4597;48.730;9.114;2022-10-04T03:55:23;4.00;;;3.70;;
9124;SDS011;4597;48.730;9.114;2022-10-04T03:57:55;4.53;;;4.20;;
9124;SDS011;4597;48.730;9.114;2022-10-04T04:00:21;3.97;;;3.70;;
9124;SDS011;4597;48.730;9.114;2022-10-04T04:02:51;3.80;;;3.40;;
9124;SDS011;4597;48.730;9.114;2022-10-04T04:10:34;6.33;;;4.70;;
9124;SDS011;4597;48.730;9.114;2022-10-04T04:13:19;3.67;;;3.47;;
9124;SDS011;4597;48.730;9.114;2022-10-04T04:15:50;4.30;;;3.80;;
9124;SDS011;4597;48.730;9.114;2022-10-04T04:18:19;3.90;;;3.60;;
9124;SDS011;4597;48.730;9.114;2022-10-04T04:20:47;4.03;;;3.73;;
9124;SDS011;4597;48.730;9.114;2022-10-04T04:23:26;4.57;;;4.17;;
9124;SDS011;4597;48.730;9.114;2022-10-04T04:26:00;5.67;;;5.10;;
9124;SDS011;4597;48.730;9.114;2022-10-04T04:28:48;5.40;;;4.90;;
9124;SDS011;4597;48.730;9.114;2022-10-04T04:31:20;6.43;;;4.90;;
9124;SDS011;4597;48.730;9.114;2022-10-04T04:33:56;6.10;;;5.50;;
9124;SDS011;4597;48.730;9.114;2022-10-04T04:36:25;5.47;;;4.97;;
9124;SDS011;4597;48.730;9.114;2022-10-04T04:42:01;5.40;;;4.90;;
9124;SDS011;4597;48.730;9.114;2022-10-04T04:44:29;5.17;;;4.67;;
9124;SDS011;4597;48.730;9.114;2022-10-04T04:46:55;5.43;;;4.83;;
9124;SDS011;4597;48.730;9.114;2022-10-04T04:49:24;5.63;;;5.07;;
9124;SDS011;4597;48.730;9.114;2022-10-04T04:51:54;5.73;;;4.73;;
9124;SDS011;4597;48.730;9.114;2022-10-04T04:54:22;5.07;;;4.67;;
9124;SDS011;4597;48.730;9.114;2022-10-04T04:56:50;6.70;;;4.77;;
9124;SDS011;4597;48.730;9.114;2022-10-04T04:59:17;5.00;;;4.50;;
9124;SDS011;4597;48.730;9.114;2022-10-04T05:01:47;4.93;;;4.43;;
9124;SDS011;4597;48.730;9.114;2022-10-04T05:04:16;7.20;;;4.90;;
9124;SDS011;4597;48.730;9.114;2022-10-04T05:07:03;5.73;;;4.87;;
9124;SDS011;4597;48.730;9.114;2022-10-04T05:09:34;5.50;;;5.00;;
9124;SDS011;4597;48.730;9.114;2022-10-04T05:14:38;6.83;;;6.03;;
9124;SDS011;4597;48.730;9.114;2022-10-04T05:17:14;6.17;;;5.67;;
9124;SDS011;4597;48.730;9.114;2022-10-04T05:19:51;7.63;;;6.23;;
9124;SDS011;4597;48.730;9.114;2022-10-04T05:22:20;8.73;;;7.83;;
9124;SDS011;4597;48.730;9.114;2022-10-04T05:24:49;9.50;;;7.63;;
9124;SDS011;4597;48.730;9.114;2022-10-04T05:33:06;6.73;;;6.13;;
9124;SDS011;4597;48.730;9.114;2022-10-04T05:38:26;8.27;;;6.70;;
9124;SDS011;4597;48.730;9.114;2022-10-04T05:43:48;10.10;;;6.67;;
9124;SDS011;4597;48.730;9.114;2022-10-04T05:46:25;7.50;;;6.70;;
9124;SDS011;4597;48.730;9.114;2022-10-04T05:48:57;7.27;;;6.57;;
9124;SDS011;4597;48.730;9.114;2022-10-04T05:51:32;9.27;;;7.50;;
9124;SDS011;4597;48.730;9.114;2022-10-04T05:54:02;7.90;;;7.07;;
9124;SDS011;4597;48.730;9.114;2022-10-04T06:02:25;8.20;;;6.43;;
9124;SDS011;4597;48.730;9.114;2022-10-04T06:08:06;7.07;;;6.40;;
9124;SDS011;4597;48.730;9.114;2022-10-04T06:24:43;6.57;;;5.97;;
9124;SDS011;4597;48.730;9.114;2022-10-04T06:27:29;9.30;;;6.03;;
9124;SDS011;4597;48.730;9.114;2022-10-04T06:30:12;6.93;;;5.93;;
9124;SDS011;4597;48.730;9.114;2022-10-04T06:33:02;6.23;;;5.63;;
9124;SDS011;4597;48.730;9.114;2022-10-04T06:35:37;9.27;;;6.67;;
9124;SDS011;4597;48.730;9.114;2022-10-04T06:43:41;8.10;;;6.77;;
9124;SDS011;4597;48.730;9.114;2022-10-04T06:49:12;6.60;;;6.00;;
9124;SDS011;4597;48.730;9.114;2022-10-04T07:03:56;8.63;;;6.10;;
9124;SDS011;4597;48.730;9.114;2022-10-04T07:06:45;7.20;;;6.50;;
9124;SDS011;4597;48.730;9.114;2022-10-04T07:09:21;7.00;;;6.30;;
9124;SDS011;4597;48.730;9.114;2022-10-04T07:11:58;7.40;;;6.73;;
9124;SDS011;4597;48.730;9.114;2022-10-04T07:14:30;7.03;;;6.33;;
9124;SDS011;4597;48.730;9.114;2022-10-04T07:17:04;7.83;;;7.00;;
9124;SDS011;4597;48.730;9.114;2022-10-04T07:19:41;9.73;;;8.30;;
9124;SDS011;4597;48.730;9.114;2022-10-04T07:30:06;8.23;;;6.47;;
9124;SDS011;4597;48.730;9.114;2022-10-04T07:32:35;9.73;;;6.60;;
9124;SDS011;4597;48.730;9.114;2022-10-04T07:37:35;8.73;;;6.80;;
9124;SDS011;4597;48.730;9.114;2022-10-04T07:42:56;8.83;;;7.23;;
9124;SDS011;4597;48.730;9.114;2022-10-04T07:45:35;7.60;;;6.80;;
9124;SDS011;4597;48.730;9.114;2022-10-04T07:48:17;9.47;;;7.23;;
9124;SDS011;4597;48.730;9.114;2022-10-04T08:01:59;7.67;;;6.30;;
9124;SDS011;4597;48.730;9.114;2022-10-04T08:04:38;7.07;;;6.37;;
9124;SDS011;4597;48.730;9.114;2022-10-04T08:07:23;11.07;;;6.40;;
9124;SDS011;4597;48.730;9.114;2022-10-04T08:10:03;7.23;;;6.40;;
9124;SDS011;4597;48.730;9.114;2022-10-04T08:12:45;6.87;;;6.17;;
9124;SDS011;4597;48.730;9.114;2022-10-04T08:15:37;7.07;;;6.13;;
9124;SDS011;4597;48.730;9.114;2022-10-04T08:21:12;7.33;;;6.63;;
9124;SDS011;4597;48.730;9.114;2022-10-04T08:28:53;9.50;;;6.37;;
9124;SDS011;4597;48.730;9.114;2022-10-04T08:32:17;8.00;;;6.10;;
9124;SDS011;4597;48.730;9.114;2022-10-04T08:41:18;9.47;;;7.13;;
9124;SDS011;4597;48.730;9.114;2022-10-04T08:47:00;7.30;;;6.40;;
9124;SDS011;4597;48.730;9.114;2022-10-04T08:49:53;8.87;;;6.10;;
9124;SDS011;4597;48.730;9.114;2022-10-04T08:52:44;7.63;;;6.50;;
9124;SDS011;4597;48.730;9.114;2022-10-04T08:58:23;8.37;;;6.90;;
9124;SDS011;4597;48.730;9.114;2022-10-04T09:04:14;14.40;;;7.47;;
9124;SDS011;4597;48.730;9.114;2022-10-04T09:10:35;7.83;;;6.57;;
9124;SDS011;4597;48.730;9.114;2022-10-04T09:16:18;7.73;;;6.97;;
9124;SDS011;4597;48.730;9.114;2022-10-04T09:26:42;6.77;;;6.00;;
9124;SDS011;4597;48.730;9.114;2022-10-04T09:40:39;6.93;;;6.07;;
9124;SDS011;4597;48.730;9.114;2022-10-04T09:46:28;6.80;;;6.00;;
9124;SDS011;4597;48.730;9.114;2022-10-04T09:54:40;7.97;;;5.23;;
9124;SDS011;4597;48.730;9.114;2022-10-04T09:57:40;7.90;;;5.20;;
9124;SDS011;4597;48.730;9.114;2022-10-04T10:00:21;7.70;;;5.10;;
9124;SDS011;4597;48.730;9.114;2022-10-04T10:08:30;6.30;;;5.13;;
9124;SDS011;4597;48.730;9.114;2022-10-04T10:11:19;6.97;;;5.63;;
9124;SDS011;4597;48.730;9.114;2022-10-04T10:28:59;6.37;;;4.73;;
9124;SDS011;4597;48.730;9.114;2022-10-04T10:34:58;6.37;;;4.77;;
9124;SDS011;4597;48.730;9.114;2022-10-04T10:38:20;5.17;;;4.63;;
9124;SDS011;4597;48.730;9.114;2022-10-04T10:46:34;8.27;;;4.10;;
9124;SDS011;4597;48.730;9.114;2022-10-04T10:58:14;4.87;;;4.03;;
9124;SDS011;4597;48.730;9.114;2022-10-04T11:14:42;10.33;;;4.07;;
9124;SDS011;4597;48.730;9.114;2022-10-04T11:31:49;4.33;;;3.47;;
9124;SDS011;4597;48.730;9.114;2022-10-04T11:37:45;5.87;;;3.50;;
9124;SDS011;4597;48.730;9.114;2022-10-04T11:40:30;5.53;;;3.20;;
9124;SDS011;4597;48.730;9.114;2022-10-04T11:43:11;3.90;;;3.10;;
9124;SDS011;4597;48.730;9.114;2022-10-04T11:57:26;4.43;;;3.13;;
9124;SDS011;4597;48.730;9.114;2022-10-04T12:00:00;3.10;;;2.90;;
9124;SDS011;4597;48.730;9.114;2022-10-04T12:05:45;3.83;;;3.10;;
9124;SDS011;4597;48.730;9.114;2022-10-04T12:11:32;4.33;;;2.83;;
9124;SDS011;4597;48.730;9.114;2022-10-04T12:14:47;3.77;;;2.97;;
9124;SDS011;4597;48.730;9.114;2022-10-04T12:31:31;3.57;;;3.27;;
9124;SDS011;4597;48.730;9.114;2022-10-04T12:40:02;3.57;;;2.53;;
9124;SDS011;4597;48.730;9.114;2022-10-04T12:48:07;3.00;;;2.70;;
9124;SDS011;4597;48.730;9.114;2022-10-04T12:50:56;3.13;;;2.80;;
9124;SDS011;4597;48.730;9.114;2022-10-04T12:53:54;3.97;;;2.83;;
9124;SDS011;4597;48.730;9.114;2022-10-04T12:56:44;3.90;;;2.73;;
9124;SDS011;4597;48.730;9.114;2022-10-04T13:17:54;5.53;;;3.07;;
9124;SDS011;4597;48.730;9.114;2022-10-04T13:25:56;5.60;;;3.10;;
9124;SDS011;4597;48.730;9.114;2022-10-04T13:28:27;4.20;;;3.23;;
9124;SDS011;4597;48.730;9.114;2022-10-04T13:31:18;3.50;;;3.20;;
9124;SDS011;4597;48.730;9.114;2022-10-04T13:42:47;3.03;;;2.73;;
9124;SDS011;4597;48.730;9.114;2022-10-04T13:48:25;5.43;;;2.70;;
9124;SDS011;4597;48.730;9.114;2022-10-04T13:51:21;3.60;;;2.73;;
9124;SDS011;4597;48.730;9.114;2022-10-04T13:54:14;3.90;;;2.53;;
9124;SDS011;4597;48.730;9.114;2022-10-04T13:57:47;5.17;;;3.13;;
9124;SDS011;4597;48.730;9.114;2022-10-04T14:00:18;2.83;;;2.57;;
9124;SDS011;4597;48.730;9.114;2022-10-04T14:03:22;4.17;;;2.63;;
9124;SDS011;4597;48.730;9.114;2022-10-04T14:09:20;5.85;;;2.70;;
9124;SDS011;4597;48.730;9.114;2022-10-04T14:20:25;7.35;;;2.92;;
9124;SDS011;4597;48.730;9.114;2022-10-04T14:23:26;3.53;;;2.67;;
9124;SDS011;4597;48.730;9.114;2022-10-04T14:29:05;2.70;;;2.50;;
9124;SDS011;4597;48.730;9.114;2022-10-04T14:31:31;4.40;;;3.47;;
9124;SDS011;4597;48.730;9.114;2022-10-04T14:37:36;3.33;;;2.60;;
9124;SDS011;4597;48.730;9.114;2022-10-04T14:48:44;2.75;;;2.50;;
9124;SDS011;4597;48.730;9.114;2022-10-04T14:54:03;2.60;;;2.38;;
9124;SDS011;4597;48.730;9.114;2022-10-04T15:07:55;3.03;;;2.33;;
9124;SDS011;4597;48.730;9.114;2022-10-04T15:10:52;3.00;;;2.67;;
9124;SDS011;4597;48.730;9.114;2022-10-04T15:13:24;2.67;;;2.35;;
9124;SDS011;4597;48.730;9.114;2022-10-04T15:18:56;3.05;;;2.60;;
9124;SDS011;4597;48.730;9.114;2022-10-04T15:22:31;2.75;;;2.40;;
9124;SDS011;4597;48.730;9.114;2022-10-04T15:24:46;2.55;;;2.45;;
9124;SDS011;4597;48.730;9.114;2022-10-04T15:38:30;2.65;;;2.45;;
9124;SDS011;4597;48.730;9.114;2022-10-04T16:07:56;3.90;;;2.75;;
9124;SDS011;4597;48.730;9.114;2022-10-04T16:19:02;2.78;;;2.40;;
9124;SDS011;4597;48.730;9.114;2022-10-04T16:37:37;3.47;;;2.42;;
9124;SDS011;4597;48.730;9.114;2022-10-04T16:40:29;2.40;;;2.20;;
9124;SDS011;4597;48.730;9.114;2022-10-04T16:42:58;2.55;;;2.00;;
9124;SDS011;4597;48.730;9.114;2022-10-04T16:45:42;5.28;;;2.20;;
9124;SDS011;4597;48.730;9.114;2022-10-04T16:53:49;4.27;;;2.10;;
9124;SDS011;4597;48.730;9.114;2022-10-04T16:56:29;2.00;;;1.90;;
9124;SDS011;4597;48.730;9.114;2022-10-04T16:59:14;1.90;;;1.80;;
9124;SDS011;4597;48.730;9.114;2022-10-04T17:12:32;2.80;;;2.40;;
9124;SDS011;4597;48.730;9.114;2022-10-04T17:26:05;3.07;;;2.00;;
9124;SDS011;4597;48.730;9.114;2022-10-04T17:31:34;4.03;;;2.57;;
9124;SDS011;4597;48.730;9.114;2022-10-04T17:36:55;2.50;;;2.40;;
9124;SDS011;4597;48.730;9.114;2022-10-04T17:42:22;2.40;;;2.20;;
9124;SDS011;4597;48.730;9.114;2022-10-04T17:47:38;2.37;;;2.17;;
9124;SDS011;4597;48.730;9.114;2022-10-04T17:50:49;3.40;;;2.00;;
9124;SDS011;4597;48.730;9.114;2022-10-04T17:53:35;2.37;;;2.10;;
9124;SDS011;4597;48.730;9.114;2022-10-04T17:56:26;2.73;;;2.50;;
9124;SDS011;4597;48.730;9.114;2022-10-04T17:59:15;4.13;;;2.50;;
9124;SDS011;4597;48.730;9.114;2022-10-04T18:01:46;2.17;;;2.00;;
9124;SDS011;4597;48.730;9.114;2022-10-04T18:04:22;2.67;;;2.47;;
9124;SDS011;4597;48.730;9.114;2022-10-04T18:07:13;2.70;;;2.47;;
9124;SDS011;4597;48.730;9.114;2022-10-04T18:09:46;4.77;;;2.27;;
9124;SDS011;4597;48.730;9.114;2022-10-04T18:15:09;3.17;;;2.00;;
9124;SDS011;4597;48.730;9.114;2022-10-04T18:17:40;4.67;;;2.37;;
9124;SDS011;4597;48.730;9.114;2022-10-04T18:22:59;6.00;;;2.50;;
9124;SDS011;4597;48.730;9.114;2022-10-04T18:25:28;3.33;;;2.30;;
9124;SDS011;4597;48.730;9.114;2022-10-04T18:33:15;5.37;;;2.83;;
9124;SDS011;4597;48.730;9.114;2022-10-04T18:38:41;4.40;;;2.93;;
9124;SDS011;4597;48.730;9.114;2022-10-04T18:43:40;4.20;;;2.60;;
9124;SDS011;4597;48.730;9.114;2022-10-04T18:46:27;4.43;;;2.60;;
9124;SDS011;4597;48.730;9.114;2022-10-04T18:49:18;4.57;;;2.90;;
9124;SDS011;4597;48.730;9.114;2022-10-04T18:51:59;6.30;;;3.30;;
9124;SDS011;4597;48.730;9.114;2022-10-04T18:54:37;3.43;;;3.10;;
9124;SDS011;4597;48.730;9.114;2022-10-04T18:57:31;4.13;;;3.10;;
9124;SDS011;4597;48.730;9.114;2022-10-04T19:00:31;6.57;;;4.20;;
9124;SDS011;4597;48.730;9.114;2022-10-04T19:03:33;5.17;;;4.13;;
9124;SDS011;4597;48.730;9.114;2022-10-04T19:06:24;5.53;;;4.23;;
9124;SDS011;4597;48.730;9.114;2022-10-04T19:11:58;6.30;;;4.00;;
9124;SDS011;4597;48.730;9.114;2022-10-04T19:20:04;7.40;;;5.40;;
9124;SDS011;4597;48.730;9.114;2022-10-04T19:25:12;6.67;;;5.27;;
9124;SDS011;4597;48.730;9.114;2022-10-04T19:41:33;6.63;;;3.47;;
9124;SDS011;4597;48.730;9.114;2022-10-04T19:47:00;6.87;;;4.80;;
9124;SDS011;4597;48.730;9.114;2022-10-04T19:55:02;7.13;;;5.97;;
9124;SDS011;4597;48.730;9.114;2022-10-04T19:57:42;9.70;;;5.73;;
9124;SDS011;4597;48.730;9.114;2022-10-04T20:00:13;7.57;;;5.90;;
9124;SDS011;4597;48.730;9.114;2022-10-04T20:02:41;11.30;;;5.10;;
9124;SDS011;4597;48.730;9.114;2022-10-04T20:05:10;7.17;;;5.67;;
9124;SDS011;4597;48.730;9.114;2022-10-04T20:07:37;6.27;;;5.00;;
9124;SDS011;4597;48.730;9.114;2022-10-04T20:15:48;7.33;;;4.97;;
9124;SDS011;4597;48.730;9.114;2022-10-04T20:26:08;5.90;;;4.67;;
9124;SDS011;4597;48.730;9.114;2022-10-04T20:29:06;7.03;;;5.10;;
9124;SDS011;4597;48.730;9.114;2022-10-04T20:36:59;5.87;;;5.23;;
9124;SDS011;4597;48.730;9.114;2022-10-04T20:42:09;7.53;;;5.83;;
9124;SDS011;4597;48.730;9.114;2022-10-04T20:50:02;12.53;;;7.10;;
9124;SDS011;4597;48.730;9.114;2022-10-04T20:52:31;10.47;;;6.73;;
9124;SDS011;4597;48.730;9.114;2022-10-04T20:55:00;6.63;;;6.03;;
9124;SDS011;4597;48.730;9.114;2022-10-04T20:57:29;6.97;;;5.90;;
9124;SDS011;4597;48.730;9.114;2022-10-04T20:59:55;6.70;;;6.00;;
9124;SDS011;4597;48.730;9.114;2022-10-04T21:02:23;6.40;;;5.80;;
9124;SDS011;4597;48.730;9.114;2022-10-04T21:04:51;7.73;;;5.30;;
9124;SDS011;4597;48.730;9.114;2022-10-04T21:09:45;8.17;;;4.97;;
9124;SDS011;4597;48.730;9.114;2022-10-04T21:12:27;7.80;;;5.60;;
9124;SDS011;4597;48.730;9.114;2022-10-04T21:15:21;7.07;;;5.07;;
9124;SDS011;4597;48.730;9.114;2022-10-04T21:17:59;6.30;;;5.43;;
9124;SDS011;4597;48.730;9.114;2022-10-04T21:23:28;5.80;;;5.20;;
9124;SDS011;4597;48.730;9.114;2022-10-04T21:28:51;7.10;;;5.20;;
9124;SDS011;4597;48.730;9.114;2022-10-04T21:31:18;5.67;;;4.73;;
9124;SDS011;4597;48.730;9.114;2022-10-04T21:33:44;6.13;;;5.20;;
9124;SDS011;4597;48.730;9.114;2022-10-04T21:36:09;7.27;;;4.87;;
9124;SDS011;4597;48.730;9.114;2022-10-04T21:38:35;7.33;;;4.77;;
9124;SDS011;4597;48.730;9.114;2022-10-04T21:41:01;7.20;;;5.30;;
9124;SDS011;4597;48.730;9.114;2022-10-04T21:43:27;5.37;;;4.90;;
9124;SDS011;4597;48.730;9.114;2022-10-04T21:45:52;7.10;;;5.10;;
9124;SDS011;4597;48.730;9.114;2022-10-04T21:48:18;5.07;;;4.57;;
9124;SDS011;4597;48.730;9.114;2022-10-04T21:50:47;5.53;;;4.40;;
9124;SDS011;4597;48.730;9.114;2022-10-04T21:53:13;6.23;;;4.70;;
9124;SDS011;4597;48.730;9.114;2022-10-04T21:55:39;7.07;;;4.30;;
9124;SDS011;4597;48.730;9.114;2022-10-04T21:58:04;7.30;;;4.67;;
9124;SDS011;4597;48.730;9.114;2022-10-04T22:00:30;4.67;;;3.97;;
9124;SDS011;4597;48.730;9.114;2022-10-04T22:02:56;5.17;;;4.67;;
9124;SDS011;4597;48.730;9.114;2022-10-04T22:05:22;4.97;;;4.53;;
9124;SDS011;4597;48.730;9.114;2022-10-04T22:07:47;5.17;;;4.67;;
9124;SDS011;4597;48.730;9.114;2022-10-04T22:10:13;5.20;;;4.70;;
9124;SDS011;4597;48.730;9.114;2022-10-04T22:12:38;7.70;;;5.07;;
9124;SDS011;4597;48.730;9.114;2022-10-04T22:15:04;4.87;;;4.47;;
9124;SDS011;4597;48.730;9.114;2022-10-04T22:17:30;4.70;;;4.30;;
9124;SDS011;4597;48.730;9.114;2022-10-04T22:19:56;4.53;;;4.23;;
9124;SDS011;4597;48.730;9.114;2022-10-04T22:22:21;5.83;;;5.17;;
9124;SDS011;4597;48.730;9.114;2022-10-04T22:24:47;4.93;;;4.47;;
9124;SDS011;4597;48.730;9.114;2022-10-04T22:27:13;5.10;;;4.33;;
9124;SDS011;4597;48.730;9.114;2022-10-04T22:29:40;5.40;;;4.30;;
9124;SDS011;4597;48.730;9.114;2022-10-04T22:32:22;7.00;;;4.37;;
9124;SDS011;4597;48.730;9.114;2022-10-04T22:34:50;4.73;;;4.00;;
9124;SDS011;4597;48.730;9.114;2022-10-04T22:37:17;4.60;;;4.07;;
9124;SDS011;4597;48.730;9.114;2022-10-04T22:39:48;4.27;;;3.80;;
9124;SDS011;4597;48.730;9.114;2022-10-04T22:42:14;6.07;;;3.83;;
9124;SDS011;4597;48.730;9.114;2022-10-04T22:44:40;5.40;;;4.50;;
9124;SDS011;4597;48.730;9.114;2022-10-04T22:47:08;5.37;;;4.20;;
9124;SDS011;4597;48.730;9.114;2022-10-04T22:49:36;8.03;;;3.70;;
9124;SDS011;4597;48.730;9.114;2022-10-04T22:52:08;4.23;;;3.77;;
9124;SDS011;4597;48.730;9.114;2022-10-04T22:54:43;6.63;;;3.97;;
9124;SDS011;4597;48.730;9.114;2022-10-04T22:57:11;4.00;;;3.60;;
9124;SDS011;4597;48.730;9.114;2022-10-04T22:59:44;6.47;;;4.20;;
9124;SDS011;4597;48.730;9.114;2022-10-04T23:02:12;4.50;;;4.13;;
9124;SDS011;4597;48.730;9.114;2022-10-04T23:04:40;8.80;;;4.07;;
9124;SDS011;4597;48.730;9.114;2022-10-04T23:07:08;7.73;;;4.47;;
9124;SDS011;4597;48.730;9.114;2022-10-04T23:09:34;4.30;;;3.90;;
9124;SDS011;4597;48.730;9.114;2022-10-04T23:11:59;5.33;;;4.27;;
9124;SDS011;4597;48.730;9.114;2022-10-04T23:14:25;9.50;;;4.17;;
9124;SDS011;4597;48.730;9.114;2022-10-04T23:16:51;5.00;;;4.60;;
9124;SDS011;4597;48.730;9.114;2022-10-04T23:19:17;5.00;;;4.10;;
9124;SDS011;4597;48.730;9.114;2022-10-04T23:21:45;4.83;;;4.43;;
9124;SDS011;4597;48.730;9.114;2022-10-04T23:24:13;4.83;;;4.20;;
9124;SDS011;4597;48.730;9.114;2022-10-04T23:26:40;5.90;;;4.43;;
9124;SDS011;4597;48.730;9.114;2022-10-04T23:29:39;6.10;;;4.77;;
9124;SDS011;4597;48.730;9.114;2022-10-04T23:32:00;5.47;;;4.13;;
9124;SDS011;4597;48.730;9.114;2022-10-04T23:34:34;4.60;;;4.17;;
9124;SDS011;4597;48.730;9.114;2022-10-04T23:37:02;6.03;;;4.67;;
9124;SDS011;4597;48.730;9.114;2022-10-04T23:39:34;6.17;;;3.80;;
9124;SDS011;4597;48.730;9.114;2022-10-04T23:42:00;4.47;;;3.90;;
9124;SDS011;4597;48.730;9.114;2022-10-04T23:44:32;4.63;;;4.23;;
9124;SDS011;4597;48.730;9.114;2022-10-04T23:46:59;5.00;;;4.27;;
9124;SDS011;4597;48.730;9.114;2022-10-04T23:49:25;5.50;;;4.20;;
9124;SDS011;4597;48.730;9.114;2022-10-04T23:51:55;6.50;;;4.23;;
9124;SDS011;4597;48.730;9.114;2022-10-04T23:54:25;5.10;;;3.67;;
9124;SDS011;4597;48.730;9.114;2022-10-04T23:56:51;5.27;;;4.23;;
9124;SDS011;4597;48.730;9.114;2022-10-04T23:59:17;4.10;;;3.70;;
